createdAt,value
2017-04-29T00:03:03.129Z,100
2017-04-29T00:13:14.442Z,100
2017-04-29T00:23:25.735Z,100
2017-04-29T00:33:36.997Z,100
2017-04-29T00:43:48.352Z,100
2017-04-29T00:53:59.773Z,100
2017-04-29T01:04:11.227Z,100
2017-04-29T01:14:22.664Z,100
2017-04-29T01:24:34.107Z,100
2017-04-29T01:34:45.583Z,100
2017-04-29T01:44:57.110Z,100
2017-04-29T01:55:08.471Z,100
2017-04-29T02:05:19.859Z,100
2017-04-29T02:15:31.348Z,100
2017-04-29T02:25:42.794Z,100
2017-04-29T02:35:54.252Z,100
2017-04-29T02:46:05.717Z,100
2017-04-29T02:56:17.147Z,100
2017-04-29T03:06:28.585Z,100
2017-04-29T03:16:40.083Z,100
2017-04-29T03:26:51.587Z,100
2017-04-29T03:37:03.104Z,100
2017-04-29T03:47:14.665Z,100
2017-04-29T03:57:26.324Z,100
2017-04-29T04:07:37.909Z,100
2017-04-29T04:17:49.456Z,100
2017-04-29T04:28:01.025Z,100
2017-04-29T04:38:12.613Z,100
2017-04-29T04:48:24.049Z,100
2017-04-29T04:58:35.390Z,100
2017-04-29T05:08:46.734Z,100
2017-04-29T05:18:58.066Z,100
2017-04-29T05:29:09.394Z,100
2017-04-29T05:39:20.547Z,100
2017-04-29T05:49:31.620Z,100
2017-04-29T05:59:42.587Z,100
2017-04-29T06:09:53.450Z,100
2017-04-29T06:20:04.237Z,100
2017-04-29T06:30:14.891Z,100
2017-04-29T06:40:25.505Z,100
2017-04-29T06:50:36.046Z,100
2017-04-29T07:00:46.506Z,100
2017-04-29T07:10:56.846Z,94.1
2017-04-29T07:21:06.793Z,89
2017-04-29T07:31:16.345Z,87.7
2017-04-29T07:41:25.990Z,90.7
2017-04-29T07:51:35.806Z,87.3
2017-04-29T08:01:45.670Z,86.6
2017-04-29T08:11:55.470Z,87.1
2017-04-29T08:22:05.217Z,78.5
2017-04-29T08:32:14.921Z,80.3
2017-04-29T08:42:24.734Z,81.2
2017-04-29T08:52:34.597Z,75.5
2017-04-29T09:02:44.435Z,91.4
2017-04-29T09:12:54.366Z,92.3
2017-04-29T09:23:04.373Z,91
2017-04-29T09:33:14.274Z,85.5
2017-04-29T09:43:23.735Z,70
2017-04-29T09:53:32.653Z,68.5
2017-04-29T10:03:41.460Z,67.1
2017-04-29T10:13:50.535Z,70.1
2017-04-29T10:23:59.948Z,71.1
2017-04-29T10:34:09.326Z,57.8
2017-04-29T10:44:18.211Z,57.8
2017-04-29T10:54:27.041Z,60
2017-04-29T11:04:36.120Z,58.5
2017-04-29T11:14:45.293Z,58.1
2017-04-29T11:24:54.581Z,57.7
2017-04-29T11:35:03.971Z,51.6
2017-04-29T11:45:13.011Z,53.4
2017-04-29T11:55:22.063Z,57.2
2017-04-29T12:05:31.360Z,53.4
2017-04-29T12:15:40.581Z,54.3
2017-04-29T12:25:49.776Z,52.7
2017-04-29T12:35:58.963Z,49.6
2017-04-29T12:46:07.960Z,47.8
2017-04-29T12:56:17.034Z,48.7
2017-04-29T13:06:26.304Z,48.6
2017-04-29T13:16:35.603Z,48.2
2017-04-29T13:26:44.878Z,46.4
2017-04-29T13:36:54.060Z,46
2017-04-29T13:47:02.855Z,46.9
2017-04-29T13:57:11.760Z,45.6
2017-04-29T14:07:20.653Z,46.2
2017-04-29T14:17:29.470Z,41.6
2017-04-29T14:27:37.989Z,43.9
2017-04-29T14:37:46.472Z,47.4
2017-04-29T14:47:55.323Z,44.9
2017-04-29T14:58:04.389Z,45.9
2017-04-29T15:08:13.459Z,46.1
2017-04-29T15:18:22.646Z,44.8
2017-04-29T15:28:31.742Z,45.8
2017-04-29T15:38:41.087Z,44.7
2017-04-29T15:48:50.116Z,41.6
2017-04-29T15:58:59.090Z,45.3
2017-04-29T16:09:08.476Z,47.5
2017-04-29T16:19:18.074Z,48.7
2017-04-29T16:29:27.813Z,49.3
2017-04-29T16:39:37.377Z,43.9
2017-04-29T16:49:46.883Z,43.3
2017-04-29T16:59:56.147Z,42.3
2017-04-29T17:10:05.408Z,44.2
2017-04-29T17:20:14.268Z,43.4
2017-04-29T17:30:23.400Z,44
2017-04-29T17:40:32.366Z,45
2017-04-29T17:50:41.649Z,46.7
2017-04-29T18:00:51.174Z,47.6
2017-04-29T18:11:00.869Z,47.4
2017-04-29T18:21:10.703Z,47.9
2017-04-29T18:31:20.698Z,48.8
2017-04-29T18:41:30.896Z,50.6
2017-04-29T18:51:41.254Z,51.4
2017-04-29T19:01:51.774Z,51.6
2017-04-29T19:12:02.237Z,52.8
2017-04-29T19:22:12.855Z,53.6
2017-04-29T19:32:23.500Z,54
2017-04-29T19:42:34.206Z,54.7
2017-04-29T19:52:44.973Z,53.8
2017-04-29T20:02:55.737Z,54.3
2017-04-29T20:13:06.557Z,54.2
2017-04-29T20:23:17.365Z,54.4
2017-04-29T20:33:28.206Z,54.4
2017-04-29T20:43:39.077Z,55.6
2017-04-29T20:53:49.949Z,57.5
2017-04-29T21:04:00.882Z,57.3
2017-04-29T21:14:11.833Z,57.5
2017-04-29T21:24:22.831Z,58.4
2017-04-29T21:34:33.853Z,57.5
2017-04-29T21:44:44.834Z,57.1
2017-04-29T21:54:55.823Z,56.1
2017-04-29T22:05:06.811Z,57.5
2017-04-29T22:15:17.860Z,58.9
2017-04-29T22:25:28.943Z,60.9
2017-04-29T22:35:40.035Z,63
2017-04-29T22:45:51.228Z,64.5
2017-04-29T22:56:02.445Z,66
2017-04-29T23:06:13.685Z,65.9
2017-04-29T23:16:24.912Z,66.3
2017-04-29T23:26:36.210Z,66.7
2017-04-29T23:36:47.438Z,67.9
2017-04-29T23:46:58.735Z,68.9
2017-04-29T23:57:10.040Z,68.6
